sensor_id;sensor_type;location;lat;lon;timestamp;pressure;altitude;pressure_sealevel;temperature
72054;BMP280;59918;51.280;7.950;2023-04-25T00:00:43;97310.59;;;5.50
72054;BMP280;59918;51.280;7.950;2023-04-25T00:03:12;97298.75;;;5.43
72054;BMP280;59918;51.280;7.950;2023-04-25T00:05:37;97298.88;;;5.35
72054;BMP280;59918;51.280;7.950;2023-04-25T00:08:03;97299.44;;;5.31
72054;BMP280;59918;51.280;7.950;2023-04-25T00:10:28;97295.69;;;5.27
72054;BMP280;59918;51.280;7.950;2023-04-25T00:12:54;97299.75;;;5.21
72054;BMP280;59918;51.280;7.950;2023-04-25T00:15:19;97308.13;;;5.15
72054;BMP280;59918;51.280;7.950;2023-04-25T00:17:50;97306.31;;;5.09
72054;BMP280;59918;51.280;7.950;2023-04-25T00:20:15;97309.75;;;5.02
72054;BMP280;59918;51.280;7.950;2023-04-25T00:22:41;97307.13;;;4.96
72054;BMP280;59918;51.280;7.950;2023-04-25T00:25:06;97313.91;;;4.89
72054;BMP280;59918;51.280;7.950;2023-04-25T00:27:32;97323.25;;;4.82
72054;BMP280;59918;51.280;7.950;2023-04-25T00:30:00;97327.13;;;4.78
72054;BMP280;59918;51.280;7.950;2023-04-25T00:32:25;97322.16;;;4.70
72054;BMP280;59918;51.280;7.950;2023-04-25T00:34:51;97322.22;;;4.76
72054;BMP280;59918;51.280;7.950;2023-04-25T00:37:16;97331.81;;;4.95
72054;BMP280;59918;51.280;7.950;2023-04-25T00:39:41;97337.50;;;5.11
72054;BMP280;59918;51.280;7.950;2023-04-25T00:42:07;97332.34;;;5.26
72054;BMP280;59918;51.280;7.950;2023-04-25T00:44:36;97319.72;;;5.39
72054;BMP280;59918;51.280;7.950;2023-04-25T00:47:02;97323.53;;;5.49
72054;BMP280;59918;51.280;7.950;2023-04-25T00:49:27;97321.19;;;5.54
72054;BMP280;59918;51.280;7.950;2023-04-25T00:51:52;97309.00;;;5.49
72054;BMP280;59918;51.280;7.950;2023-04-25T00:54:18;97310.31;;;5.39
72054;BMP280;59918;51.280;7.950;2023-04-25T00:56:43;97311.63;;;5.35
72054;BMP280;59918;51.280;7.950;2023-04-25T00:59:11;97308.56;;;5.46
72054;BMP280;59918;51.280;7.950;2023-04-25T01:01:38;97310.66;;;5.57
72054;BMP280;59918;51.280;7.950;2023-04-25T01:04:04;97300.50;;;5.63
72054;BMP280;59918;51.280;7.950;2023-04-25T01:06:29;97305.31;;;5.73
72054;BMP280;59918;51.280;7.950;2023-04-25T01:08:54;97310.44;;;5.79
72054;BMP280;59918;51.280;7.950;2023-04-25T01:11:26;97309.69;;;5.85
72054;BMP280;59918;51.280;7.950;2023-04-25T01:13:53;97304.06;;;5.89
72054;BMP280;59918;51.280;7.950;2023-04-25T01:16:19;97322.31;;;5.93
72054;BMP280;59918;51.280;7.950;2023-04-25T01:18:48;97309.97;;;5.96
72054;BMP280;59918;51.280;7.950;2023-04-25T01:21:13;97308.81;;;5.99
72054;BMP280;59918;51.280;7.950;2023-04-25T01:23:40;97305.72;;;6.03
72054;BMP280;59918;51.280;7.950;2023-04-25T01:26:15;97302.97;;;6.05
72054;BMP280;59918;51.280;7.950;2023-04-25T01:28:43;97319.28;;;6.10
72054;BMP280;59918;51.280;7.950;2023-04-25T01:31:11;97303.03;;;6.11
72054;BMP280;59918;51.280;7.950;2023-04-25T01:33:37;97311.28;;;6.13
72054;BMP280;59918;51.280;7.950;2023-04-25T01:36:03;97308.34;;;6.16
72054;BMP280;59918;51.280;7.950;2023-04-25T01:38:29;97318.78;;;6.21
72054;BMP280;59918;51.280;7.950;2023-04-25T01:40:55;97314.28;;;6.23
72054;BMP280;59918;51.280;7.950;2023-04-25T01:43:24;97317.81;;;6.28
72054;BMP280;59918;51.280;7.950;2023-04-25T01:45:52;97309.97;;;6.30
72054;BMP280;59918;51.280;7.950;2023-04-25T01:48:17;97316.69;;;6.31
72054;BMP280;59918;51.280;7.950;2023-04-25T01:50:43;97323.34;;;6.32
72054;BMP280;59918;51.280;7.950;2023-04-25T01:53:12;97326.31;;;6.35
72054;BMP280;59918;51.280;7.950;2023-04-25T01:55:38;97317.50;;;6.38
72054;BMP280;59918;51.280;7.950;2023-04-25T01:58:04;97327.34;;;6.41
72054;BMP280;59918;51.280;7.950;2023-04-25T02:00:29;97313.56;;;6.42
72054;BMP280;59918;51.280;7.950;2023-04-25T02:03:00;97316.72;;;6.44
72054;BMP280;59918;51.280;7.950;2023-04-25T02:05:26;97324.78;;;6.41
72054;BMP280;59918;51.280;7.950;2023-04-25T02:07:51;97324.19;;;6.39
72054;BMP280;59918;51.280;7.950;2023-04-25T02:10:16;97319.88;;;6.39
72054;BMP280;59918;51.280;7.950;2023-04-25T02:12:41;97324.38;;;6.37
72054;BMP280;59918;51.280;7.950;2023-04-25T02:15:14;97306.50;;;6.37
72054;BMP280;59918;51.280;7.950;2023-04-25T02:17:40;97319.69;;;6.41
72054;BMP280;59918;51.280;7.950;2023-04-25T02:20:05;97316.13;;;6.42
72054;BMP280;59918;51.280;7.950;2023-04-25T02:22:31;97321.06;;;6.43
72054;BMP280;59918;51.280;7.950;2023-04-25T02:25:02;97305.56;;;6.45
72054;BMP280;59918;51.280;7.950;2023-04-25T02:27:27;97307.50;;;6.43
72054;BMP280;59918;51.280;7.950;2023-04-25T02:29:53;97315.16;;;6.43
72054;BMP280;59918;51.280;7.950;2023-04-25T02:32:18;97316.72;;;6.44
72054;BMP280;59918;51.280;7.950;2023-04-25T02:34:43;97308.88;;;6.45
72054;BMP280;59918;51.280;7.950;2023-04-25T02:37:14;97313.81;;;6.47
72054;BMP280;59918;51.280;7.950;2023-04-25T02:39:39;97312.81;;;6.48
72054;BMP280;59918;51.280;7.950;2023-04-25T02:42:05;97305.56;;;6.45
72054;BMP280;59918;51.280;7.950;2023-04-25T02:44:30;97311.03;;;6.42
72054;BMP280;59918;51.280;7.950;2023-04-25T02:46:55;97317.91;;;6.41
72054;BMP280;59918;51.280;7.950;2023-04-25T02:49:24;97312.03;;;6.41
72054;BMP280;59918;51.280;7.950;2023-04-25T02:51:49;97319.09;;;6.39
72054;BMP280;59918;51.280;7.950;2023-04-25T02:54:14;97324.38;;;6.37
72054;BMP280;59918;51.280;7.950;2023-04-25T02:56:40;97326.16;;;6.37
72054;BMP280;59918;51.280;7.950;2023-04-25T02:59:07;97327.34;;;6.41
72054;BMP280;59918;51.280;7.950;2023-04-25T03:01:33;97325.38;;;6.43
72054;BMP280;59918;51.280;7.950;2023-04-25T03:03:58;97325.00;;;6.46
72054;BMP280;59918;51.280;7.950;2023-04-25T03:06:23;97333.25;;;6.48
72054;BMP280;59918;51.280;7.950;2023-04-25T03:08:51;97322.06;;;6.49
72054;BMP280;59918;51.280;7.950;2023-04-25T03:11:17;97319.53;;;6.49
72054;BMP280;59918;51.280;7.950;2023-04-25T03:13:45;97329.34;;;6.52
72054;BMP280;59918;51.280;7.950;2023-04-25T03:16:10;97326.59;;;6.47
72054;BMP280;59918;51.280;7.950;2023-04-25T03:18:36;97320.69;;;6.46
72054;BMP280;59918;51.280;7.950;2023-04-25T03:21:04;97316.78;;;6.50
72054;BMP280;59918;51.280;7.950;2023-04-25T03:23:29;97326.78;;;6.52
72054;BMP280;59918;51.280;7.950;2023-04-25T03:25:55;97325.81;;;6.46
72054;BMP280;59918;51.280;7.950;2023-04-25T03:28:20;97326.00;;;6.45
72054;BMP280;59918;51.280;7.950;2023-04-25T03:30:45;97319.53;;;6.49
72054;BMP280;59918;51.280;7.950;2023-04-25T03:33:10;97314.00;;;6.52
72054;BMP280;59918;51.280;7.950;2023-04-25T03:35:43;97330.34;;;6.57
72054;BMP280;59918;51.280;7.950;2023-04-25T03:38:08;97329.41;;;6.58
72054;BMP280;59918;51.280;7.950;2023-04-25T03:40:33;97329.19;;;6.59
72054;BMP280;59918;51.280;7.950;2023-04-25T03:42:59;97325.06;;;6.58
72054;BMP280;59918;51.280;7.950;2023-04-25T03:45:24;97323.88;;;6.54
72054;BMP280;59918;51.280;7.950;2023-04-25T03:47:52;97327.59;;;6.52
72054;BMP280;59918;51.280;7.950;2023-04-25T03:50:18;97333.31;;;6.54
72054;BMP280;59918;51.280;7.950;2023-04-25T03:52:43;97330.53;;;6.55
72054;BMP280;59918;51.280;7.950;2023-04-25T03:55:08;97334.09;;;6.54
72054;BMP280;59918;51.280;7.950;2023-04-25T03:57:34;97327.38;;;6.53
72054;BMP280;59918;51.280;7.950;2023-04-25T03:59:59;97343.72;;;6.53
72054;BMP280;59918;51.280;7.950;2023-04-25T04:02:27;97345.69;;;6.57
72054;BMP280;59918;51.280;7.950;2023-04-25T04:04:53;97348.06;;;6.58
72054;BMP280;59918;51.280;7.950;2023-04-25T04:07:18;97352.78;;;6.61
72054;BMP280;59918;51.280;7.950;2023-04-25T04:09:43;97346.53;;;6.64
72054;BMP280;59918;51.280;7.950;2023-04-25T04:12:08;97347.13;;;6.66
72054;BMP280;59918;51.280;7.950;2023-04-25T04:14:34;97343.53;;;6.60
72054;BMP280;59918;51.280;7.950;2023-04-25T04:16:59;97352.19;;;6.59
72054;BMP280;59918;51.280;7.950;2023-04-25T04:19:30;97356.69;;;6.57
72054;BMP280;59918;51.280;7.950;2023-04-25T04:21:55;97356.47;;;6.53
72054;BMP280;59918;51.280;7.950;2023-04-25T04:24:21;97363.50;;;6.44
72054;BMP280;59918;51.280;7.950;2023-04-25T04:26:46;97356.38;;;6.33
72054;BMP280;59918;51.280;7.950;2023-04-25T04:29:11;97363.06;;;6.34
72054;BMP280;59918;51.280;7.950;2023-04-25T04:31:40;97358.31;;;6.31
72054;BMP280;59918;51.280;7.950;2023-04-25T04:34:05;97360.88;;;6.31
72054;BMP280;59918;51.280;7.950;2023-04-25T04:36:30;97371.31;;;6.36
72054;BMP280;59918;51.280;7.950;2023-04-25T04:38:55;97363.47;;;6.38
72054;BMP280;59918;51.280;7.950;2023-04-25T04:41:20;97370.16;;;6.39
72054;BMP280;59918;51.280;7.950;2023-04-25T04:43:46;97370.75;;;6.41
72054;BMP280;59918;51.280;7.950;2023-04-25T04:46:11;97375.63;;;6.36
72054;BMP280;59918;51.280;7.950;2023-04-25T04:48:42;97385.78;;;6.23
72054;BMP280;59918;51.280;7.950;2023-04-25T04:51:07;97384.50;;;6.13
72054;BMP280;59918;51.280;7.950;2023-04-25T04:53:35;97389.66;;;6.19
72054;BMP280;59918;51.280;7.950;2023-04-25T04:56:06;97395.59;;;6.26
72054;BMP280;59918;51.280;7.950;2023-04-25T04:58:31;97391.69;;;6.30
72054;BMP280;59918;51.280;7.950;2023-04-25T05:00:57;97400.81;;;6.39
72054;BMP280;59918;51.280;7.950;2023-04-25T05:03:22;97404.16;;;6.46
72054;BMP280;59918;51.280;7.950;2023-04-25T05:05:47;97393.19;;;6.52
72054;BMP280;59918;51.280;7.950;2023-04-25T05:08:16;97396.00;;;6.56
72054;BMP280;59918;51.280;7.950;2023-04-25T05:10:41;97401.91;;;6.63
72054;BMP280;59918;51.280;7.950;2023-04-25T05:13:06;97402.34;;;6.67
72054;BMP280;59918;51.280;7.950;2023-04-25T05:15:31;97405.66;;;6.67
72054;BMP280;59918;51.280;7.950;2023-04-25T05:17:57;97412.56;;;6.67
72054;BMP280;59918;51.280;7.950;2023-04-25T05:20:22;97402.75;;;6.70
72054;BMP280;59918;51.280;7.950;2023-04-25T05:22:47;97408.88;;;6.76
72054;BMP280;59918;51.280;7.950;2023-04-25T05:25:16;97404.16;;;6.79
72054;BMP280;59918;51.280;7.950;2023-04-25T05:27:41;97413.03;;;6.83
72054;BMP280;59918;51.280;7.950;2023-04-25T05:30:07;97408.50;;;6.85
72054;BMP280;59918;51.280;7.950;2023-04-25T05:32:32;97409.72;;;6.89
72054;BMP280;59918;51.280;7.950;2023-04-25T05:34:57;97418.56;;;6.93
72054;BMP280;59918;51.280;7.950;2023-04-25T05:37:22;97416.41;;;6.90
72054;BMP280;59918;51.280;7.950;2023-04-25T05:39:54;97421.94;;;6.93
72054;BMP280;59918;51.280;7.950;2023-04-25T05:42:19;97433.53;;;6.90
72054;BMP280;59918;51.280;7.950;2023-04-25T05:44:44;97438.03;;;6.88
72054;BMP280;59918;51.280;7.950;2023-04-25T05:47:09;97439.56;;;6.82
72054;BMP280;59918;51.280;7.950;2023-04-25T05:49:35;97440.16;;;6.84
72054;BMP280;59918;51.280;7.950;2023-04-25T05:52:06;97441.97;;;6.90
72054;BMP280;59918;51.280;7.950;2023-04-25T05:54:31;97443.16;;;6.94
72054;BMP280;59918;51.280;7.950;2023-04-25T05:56:57;97449.47;;;6.98
72054;BMP280;59918;51.280;7.950;2023-04-25T05:59:22;97455.38;;;6.98
72054;BMP280;59918;51.280;7.950;2023-04-25T06:01:47;97452.03;;;6.98
72054;BMP280;59918;51.280;7.950;2023-04-25T06:04:15;97461.66;;;6.96
72054;BMP280;59918;51.280;7.950;2023-04-25T06:06:41;97462.84;;;6.93
72054;BMP280;59918;51.280;7.950;2023-04-25T06:09:06;97464.81;;;6.98
72054;BMP280;59918;51.280;7.950;2023-04-25T06:11:31;97468.38;;;6.97
72054;BMP280;59918;51.280;7.950;2023-04-25T06:13:56;97470.78;;;7.05
72054;BMP280;59918;51.280;7.950;2023-04-25T06:16:22;97478.03;;;7.08
72054;BMP280;59918;51.280;7.950;2023-04-25T06:18:47;97474.72;;;7.14
72054;BMP280;59918;51.280;7.950;2023-04-25T06:21:18;97479.09;;;7.20
72054;BMP280;59918;51.280;7.950;2023-04-25T06:23:43;97471.41;;;7.20
72054;BMP280;59918;51.280;7.950;2023-04-25T06:26:09;97481.78;;;7.12
72054;BMP280;59918;51.280;7.950;2023-04-25T06:28:34;97476.84;;;7.04
72054;BMP280;59918;51.280;7.950;2023-04-25T06:30:59;97494.72;;;6.97
72054;BMP280;59918;51.280;7.950;2023-04-25T06:33:30;97491.38;;;6.97
72054;BMP280;59918;51.280;7.950;2023-04-25T06:35:55;97488.84;;;7.03
72054;BMP280;59918;51.280;7.950;2023-04-25T06:38:21;97494.00;;;7.16
72054;BMP280;59918;51.280;7.950;2023-04-25T06:40:46;97486.59;;;7.27
72054;BMP280;59918;51.280;7.950;2023-04-25T06:43:11;97494.50;;;7.39
72054;BMP280;59918;51.280;7.950;2023-04-25T06:45:42;97490.25;;;7.52
72054;BMP280;59918;51.280;7.950;2023-04-25T06:48:07;97496.56;;;7.69
72054;BMP280;59918;51.280;7.950;2023-04-25T06:50:33;97495.03;;;7.81
72054;BMP280;59918;51.280;7.950;2023-04-25T06:52:58;97491.50;;;7.88
72054;BMP280;59918;51.280;7.950;2023-04-25T06:55:24;97500.56;;;7.91
72054;BMP280;59918;51.280;7.950;2023-04-25T06:57:55;97497.81;;;7.92
72054;BMP280;59918;51.280;7.950;2023-04-25T07:00:20;97496.44;;;7.90
72054;BMP280;59918;51.280;7.950;2023-04-25T07:02:45;97504.31;;;7.95
72054;BMP280;59918;51.280;7.950;2023-04-25T07:05:11;97500.97;;;8.00
72054;BMP280;59918;51.280;7.950;2023-04-25T07:07:36;97502.63;;;8.27
72054;BMP280;59918;51.280;7.950;2023-04-25T07:10:04;97500.44;;;8.63
72054;BMP280;59918;51.280;7.950;2023-04-25T07:12:30;97503.00;;;8.69
72054;BMP280;59918;51.280;7.950;2023-04-25T07:14:55;97505.38;;;8.71
72054;BMP280;59918;51.280;7.950;2023-04-25T07:17:20;97503.38;;;8.79
72054;BMP280;59918;51.280;7.950;2023-04-25T07:19:45;97507.53;;;8.86
72054;BMP280;59918;51.280;7.950;2023-04-25T07:22:11;97502.59;;;8.91
72054;BMP280;59918;51.280;7.950;2023-04-25T07:24:36;97508.69;;;8.90
72054;BMP280;59918;51.280;7.950;2023-04-25T07:27:04;97518.34;;;9.01
72054;BMP280;59918;51.280;7.950;2023-04-25T07:29:29;97508.03;;;9.27
72054;BMP280;59918;51.280;7.950;2023-04-25T07:31:54;97510.69;;;9.57
72054;BMP280;59918;51.280;7.950;2023-04-25T07:34:19;97517.72;;;10.12
72054;BMP280;59918;51.280;7.950;2023-04-25T07:36:45;97506.09;;;10.33
72054;BMP280;59918;51.280;7.950;2023-04-25T07:39:10;97518.13;;;10.39
72054;BMP280;59918;51.280;7.950;2023-04-25T07:41:35;97511.16;;;10.46
72054;BMP280;59918;51.280;7.950;2023-04-25T07:44:06;97514.16;;;10.67
72054;BMP280;59918;51.280;7.950;2023-04-25T07:46:32;97509.41;;;10.64
72054;BMP280;59918;51.280;7.950;2023-04-25T07:48:57;97508.06;;;10.62
72054;BMP280;59918;51.280;7.950;2023-04-25T07:51:22;97516.75;;;10.61
72054;BMP280;59918;51.280;7.950;2023-04-25T07:53:47;97533.06;;;10.49
72054;BMP280;59918;51.280;7.950;2023-04-25T07:56:15;97529.47;;;10.25
72054;BMP280;59918;51.280;7.950;2023-04-25T07:58:41;97539.72;;;10.01
72054;BMP280;59918;51.280;7.950;2023-04-25T08:01:06;97541.97;;;9.85
72054;BMP280;59918;51.280;7.950;2023-04-25T08:03:31;97545.25;;;10.05
72054;BMP280;59918;51.280;7.950;2023-04-25T08:05:56;97543.91;;;10.26
72054;BMP280;59918;51.280;7.950;2023-04-25T08:08:21;97546.50;;;10.26
72054;BMP280;59918;51.280;7.950;2023-04-25T08:10:47;97548.16;;;10.15
72054;BMP280;59918;51.280;7.950;2023-04-25T08:13:19;97555.56;;;9.92
72054;BMP280;59918;51.280;7.950;2023-04-25T08:15:45;97554.25;;;9.70
72054;BMP280;59918;51.280;7.950;2023-04-25T08:18:10;97565.56;;;9.56
72054;BMP280;59918;51.280;7.950;2023-04-25T08:20:35;97560.03;;;9.53
72054;BMP280;59918;51.280;7.950;2023-04-25T08:23:06;97564.00;;;9.55
72054;BMP280;59918;51.280;7.950;2023-04-25T08:25:32;97561.97;;;9.70
72054;BMP280;59918;51.280;7.950;2023-04-25T08:27:57;97563.47;;;9.97
72054;BMP280;59918;51.280;7.950;2023-04-25T08:30:22;97566.28;;;10.26
72054;BMP280;59918;51.280;7.950;2023-04-25T08:32:47;97569.91;;;10.67
72054;BMP280;59918;51.280;7.950;2023-04-25T08:35:16;97567.75;;;11.12
72054;BMP280;59918;51.280;7.950;2023-04-25T08:37:41;97575.53;;;11.48
72054;BMP280;59918;51.280;7.950;2023-04-25T08:40:09;97567.16;;;11.70
72054;BMP280;59918;51.280;7.950;2023-04-25T08:42:40;97570.38;;;11.83
72054;BMP280;59918;51.280;7.950;2023-04-25T08:45:07;97578.56;;;12.09
72054;BMP280;59918;51.280;7.950;2023-04-25T08:47:33;97585.56;;;12.20
72054;BMP280;59918;51.280;7.950;2023-04-25T08:49:59;97584.06;;;12.13
72054;BMP280;59918;51.280;7.950;2023-04-25T08:52:31;97594.09;;;12.03
72054;BMP280;59918;51.280;7.950;2023-04-25T08:54:57;97593.09;;;11.86
72054;BMP280;59918;51.280;7.950;2023-04-25T08:57:29;97602.53;;;11.63
72054;BMP280;59918;51.280;7.950;2023-04-25T08:59:54;97615.16;;;11.47
72054;BMP280;59918;51.280;7.950;2023-04-25T09:02:21;97611.06;;;11.39
72054;BMP280;59918;51.280;7.950;2023-04-25T09:04:47;97615.84;;;11.36
72054;BMP280;59918;51.280;7.950;2023-04-25T09:07:12;97619.03;;;11.31
72054;BMP280;59918;51.280;7.950;2023-04-25T09:09:38;97623.69;;;11.47
72054;BMP280;59918;51.280;7.950;2023-04-25T09:12:03;97620.69;;;11.68
72054;BMP280;59918;51.280;7.950;2023-04-25T09:14:28;97618.75;;;11.99
72054;BMP280;59918;51.280;7.950;2023-04-25T09:21:53;97634.97;;;11.46
72054;BMP280;59918;51.280;7.950;2023-04-25T09:26:56;97639.84;;;11.06
72054;BMP280;59918;51.280;7.950;2023-04-25T09:29:28;97641.78;;;10.86
72054;BMP280;59918;51.280;7.950;2023-04-25T09:32:10;97649.88;;;10.59
72054;BMP280;59918;51.280;7.950;2023-04-25T09:34:40;97655.34;;;10.38
72054;BMP280;59918;51.280;7.950;2023-04-25T09:37:05;97657.09;;;10.44
72054;BMP280;59918;51.280;7.950;2023-04-25T09:39:32;97651.16;;;10.81
72054;BMP280;59918;51.280;7.950;2023-04-25T09:41:59;97650.56;;;11.27
72054;BMP280;59918;51.280;7.950;2023-04-25T09:44:24;97652.09;;;11.76
72054;BMP280;59918;51.280;7.950;2023-04-25T09:46:49;97655.53;;;12.24
72054;BMP280;59918;51.280;7.950;2023-04-25T09:49:15;97655.13;;;12.38
72054;BMP280;59918;51.280;7.950;2023-04-25T09:51:40;97654.09;;;12.28
72054;BMP280;59918;51.280;7.950;2023-04-25T09:54:05;97649.63;;;12.35
72054;BMP280;59918;51.280;7.950;2023-04-25T09:56:34;97657.22;;;12.88
72054;BMP280;59918;51.280;7.950;2023-04-25T09:59:00;97641.78;;;13.90
72054;BMP280;59918;51.280;7.950;2023-04-25T10:01:27;97645.09;;;14.96
72054;BMP280;59918;51.280;7.950;2023-04-25T10:03:55;97649.28;;;14.86
72054;BMP280;59918;51.280;7.950;2023-04-25T10:06:22;97653.50;;;14.31
72054;BMP280;59918;51.280;7.950;2023-04-25T10:08:50;97652.81;;;13.63
72054;BMP280;59918;51.280;7.950;2023-04-25T10:11:16;97663.69;;;13.08
72054;BMP280;59918;51.280;7.950;2023-04-25T10:13:43;97676.53;;;12.68
72054;BMP280;59918;51.280;7.950;2023-04-25T10:16:08;97675.81;;;12.49
72054;BMP280;59918;51.280;7.950;2023-04-25T10:18:33;97680.34;;;12.83
72054;BMP280;59918;51.280;7.950;2023-04-25T10:21:04;97677.28;;;13.26
72054;BMP280;59918;51.280;7.950;2023-04-25T10:23:30;97678.88;;;13.27
72054;BMP280;59918;51.280;7.950;2023-04-25T10:25:56;97677.56;;;13.07
72054;BMP280;59918;51.280;7.950;2023-04-25T10:28:22;97681.78;;;12.79
72054;BMP280;59918;51.280;7.950;2023-04-25T10:33:33;97703.06;;;12.10
72054;BMP280;59918;51.280;7.950;2023-04-25T10:35:58;97699.41;;;11.82
72054;BMP280;59918;51.280;7.950;2023-04-25T10:38:25;97701.69;;;11.72
72054;BMP280;59918;51.280;7.950;2023-04-25T10:41:04;97698.34;;;11.89
72054;BMP280;59918;51.280;7.950;2023-04-25T10:43:34;97696.44;;;12.49
72054;BMP280;59918;51.280;7.950;2023-04-25T10:46:00;97695.50;;;13.65
72054;BMP280;59918;51.280;7.950;2023-04-25T10:48:30;97690.50;;;15.85
72054;BMP280;59918;51.280;7.950;2023-04-25T10:51:15;97675.84;;;16.80
72054;BMP280;59918;51.280;7.950;2023-04-25T10:53:41;97683.22;;;16.19
72054;BMP280;59918;51.280;7.950;2023-04-25T10:56:19;97691.28;;;15.15
72054;BMP280;59918;51.280;7.950;2023-04-25T10:58:45;97688.25;;;14.24
72054;BMP280;59918;51.280;7.950;2023-04-25T11:01:12;97703.00;;;13.44
72054;BMP280;59918;51.280;7.950;2023-04-25T11:03:42;97711.28;;;12.83
72054;BMP280;59918;51.280;7.950;2023-04-25T11:06:18;97721.81;;;12.35
72054;BMP280;59918;51.280;7.950;2023-04-25T11:08:51;97724.22;;;11.94
72054;BMP280;59918;51.280;7.950;2023-04-25T11:11:17;97730.44;;;11.69
72054;BMP280;59918;51.280;7.950;2023-04-25T11:13:43;97733.28;;;11.61
72054;BMP280;59918;51.280;7.950;2023-04-25T11:16:09;97733.81;;;11.69
72054;BMP280;59918;51.280;7.950;2023-04-25T11:18:34;97729.81;;;11.91
72054;BMP280;59918;51.280;7.950;2023-04-25T11:21:00;97722.53;;;12.41
72054;BMP280;59918;51.280;7.950;2023-04-25T11:23:26;97716.88;;;13.09
72054;BMP280;59918;51.280;7.950;2023-04-25T11:25:51;97703.03;;;15.23
72054;BMP280;59918;51.280;7.950;2023-04-25T11:28:20;97680.53;;;18.98
72054;BMP280;59918;51.280;7.950;2023-04-25T11:30:49;97667.91;;;21.75
72054;BMP280;59918;51.280;7.950;2023-04-25T11:33:14;97671.28;;;23.54
72054;BMP280;59918;51.280;7.950;2023-04-25T11:35:43;97660.97;;;24.56
72054;BMP280;59918;51.280;7.950;2023-04-25T11:38:08;97657.69;;;25.51
72054;BMP280;59918;51.280;7.950;2023-04-25T11:40:35;97652.25;;;26.54
72054;BMP280;59918;51.280;7.950;2023-04-25T11:43:00;97653.91;;;25.57
72054;BMP280;59918;51.280;7.950;2023-04-25T11:45:26;97655.09;;;23.66
72054;BMP280;59918;51.280;7.950;2023-04-25T11:47:52;97668.16;;;21.50
72054;BMP280;59918;51.280;7.950;2023-04-25T11:50:17;97686.78;;;19.61
72054;BMP280;59918;51.280;7.950;2023-04-25T11:52:46;97691.31;;;17.94
72054;BMP280;59918;51.280;7.950;2023-04-25T11:55:16;97699.47;;;16.79
72054;BMP280;59918;51.280;7.950;2023-04-25T11:57:43;97711.88;;;15.92
72054;BMP280;59918;51.280;7.950;2023-04-25T12:02:36;97704.41;;;14.70
72054;BMP280;59918;51.280;7.950;2023-04-25T12:05:01;97717.47;;;14.24
72054;BMP280;59918;51.280;7.950;2023-04-25T12:07:29;97720.34;;;14.00
72054;BMP280;59918;51.280;7.950;2023-04-25T12:09:54;97731.44;;;13.89
72054;BMP280;59918;51.280;7.950;2023-04-25T12:12:20;97726.38;;;13.94
72054;BMP280;59918;51.280;7.950;2023-04-25T12:14:47;97721.47;;;14.04
72054;BMP280;59918;51.280;7.950;2023-04-25T12:17:12;97720.88;;;14.14
72054;BMP280;59918;51.280;7.950;2023-04-25T12:19:38;97730.41;;;14.24
72054;BMP280;59918;51.280;7.950;2023-04-25T12:22:18;97736.91;;;14.38
72054;BMP280;59918;51.280;7.950;2023-04-25T12:24:44;97738.19;;;14.91
72054;BMP280;59918;51.280;7.950;2023-04-25T12:27:09;97743.97;;;15.53
72054;BMP280;59918;51.280;7.950;2023-04-25T12:29:35;97745.34;;;15.77
72054;BMP280;59918;51.280;7.950;2023-04-25T12:32:00;97748.81;;;15.66
72054;BMP280;59918;51.280;7.950;2023-04-25T12:34:26;97748.19;;;15.59
72054;BMP280;59918;51.280;7.950;2023-04-25T12:36:51;97745.66;;;15.48
72054;BMP280;59918;51.280;7.950;2023-04-25T12:39:18;97744.50;;;15.11
72054;BMP280;59918;51.280;7.950;2023-04-25T12:41:44;97757.22;;;14.85
72054;BMP280;59918;51.280;7.950;2023-04-25T12:44:09;97752.09;;;15.01
72054;BMP280;59918;51.280;7.950;2023-04-25T12:46:35;97750.25;;;15.57
72054;BMP280;59918;51.280;7.950;2023-04-25T12:49:00;97750.63;;;15.82
72054;BMP280;59918;51.280;7.950;2023-04-25T12:51:26;97750.44;;;15.72
72054;BMP280;59918;51.280;7.950;2023-04-25T12:53:51;97746.31;;;15.55
72054;BMP280;59918;51.280;7.950;2023-04-25T12:56:16;97743.63;;;18.44
72054;BMP280;59918;51.280;7.950;2023-04-25T12:58:42;97734.41;;;20.98
72054;BMP280;59918;51.280;7.950;2023-04-25T13:01:07;97731.75;;;20.45
72054;BMP280;59918;51.280;7.950;2023-04-25T13:03:32;97723.69;;;20.99
72054;BMP280;59918;51.280;7.950;2023-04-25T13:05:57;97734.56;;;21.54
72054;BMP280;59918;51.280;7.950;2023-04-25T13:08:23;97716.25;;;24.64
72054;BMP280;59918;51.280;7.950;2023-04-25T13:10:48;97703.00;;;27.94
72054;BMP280;59918;51.280;7.950;2023-04-25T13:13:13;97690.38;;;29.98
72054;BMP280;59918;51.280;7.950;2023-04-25T13:15:38;97686.34;;;30.99
72054;BMP280;59918;51.280;7.950;2023-04-25T13:18:04;97693.47;;;31.34
72054;BMP280;59918;51.280;7.950;2023-04-25T13:20:29;97695.34;;;30.23
72054;BMP280;59918;51.280;7.950;2023-04-25T13:22:54;97706.81;;;27.34
72054;BMP280;59918;51.280;7.950;2023-04-25T13:25:20;97714.78;;;25.85
72054;BMP280;59918;51.280;7.950;2023-04-25T13:27:45;97720.09;;;25.07
72054;BMP280;59918;51.280;7.950;2023-04-25T13:30:10;97704.66;;;26.09
72054;BMP280;59918;51.280;7.950;2023-04-25T13:32:36;97699.25;;;28.03
72054;BMP280;59918;51.280;7.950;2023-04-25T13:35:07;97691.91;;;27.38
72054;BMP280;59918;51.280;7.950;2023-04-25T13:37:32;97697.84;;;27.97
72054;BMP280;59918;51.280;7.950;2023-04-25T13:40:02;97705.25;;;27.67
72054;BMP280;59918;51.280;7.950;2023-04-25T13:42:30;97719.38;;;24.53
72054;BMP280;59918;51.280;7.950;2023-04-25T13:44:55;97721.88;;;22.45
72054;BMP280;59918;51.280;7.950;2023-04-25T13:47:22;97731.41;;;20.71
72054;BMP280;59918;51.280;7.950;2023-04-25T13:49:47;97732.09;;;20.24
72054;BMP280;59918;51.280;7.950;2023-04-25T13:52:12;97725.13;;;23.34
72054;BMP280;59918;51.280;7.950;2023-04-25T13:54:37;97719.75;;;24.33
72054;BMP280;59918;51.280;7.950;2023-04-25T13:57:02;97726.78;;;22.75
72054;BMP280;59918;51.280;7.950;2023-04-25T13:59:28;97729.06;;;21.18
72054;BMP280;59918;51.280;7.950;2023-04-25T14:01:53;97742.34;;;19.81
72054;BMP280;59918;51.280;7.950;2023-04-25T14:04:18;97740.91;;;18.85
72054;BMP280;59918;51.280;7.950;2023-04-25T14:06:43;97746.91;;;18.20
72054;BMP280;59918;51.280;7.950;2023-04-25T14:09:09;97747.75;;;17.94
72054;BMP280;59918;51.280;7.950;2023-04-25T14:11:34;97736.09;;;18.01
72054;BMP280;59918;51.280;7.950;2023-04-25T14:13:59;97734.72;;;19.01
72054;BMP280;59918;51.280;7.950;2023-04-25T14:16:24;97739.47;;;20.02
72054;BMP280;59918;51.280;7.950;2023-04-25T14:18:50;97735.03;;;19.93
72054;BMP280;59918;51.280;7.950;2023-04-25T14:21:15;97728.69;;;21.39
72054;BMP280;59918;51.280;7.950;2023-04-25T14:23:40;97736.50;;;20.96